Time,TemperatureF,DewpointF,PressureIn,WindDirection,WindDirectionDegrees,WindSpeedMPH,WindSpeedGustMPH,Humidity,HourlyPrecipIn,Conditions,Clouds,dailyrainin,SoftwareType,DateUTC
2013-04-24 00:11:00,43.2,42.0,29.98,North,353,2.0,12.0,95,0.01,,,0.13,weatherlink.com 1.10,2013-04-24 04:11:00,
2013-04-24 00:26:00,43.3,42.0,29.97,North,356,0.0,11.0,95,0.00,,,0.00,weatherlink.com 1.10,2013-04-24 04:26:00,
2013-04-24 00:41:00,43.3,42.0,29.97,NNW,348,2.0,11.0,95,0.00,,,0.00,weatherlink.com 1.10,2013-04-24 04:41:00,
2013-04-24 00:56:00,43.3,42.0,29.95,NNE,29,3.0,12.0,95,0.00,,,0.00,weatherlink.com 1.10,2013-04-24 04:56:00,
2013-04-24 01:11:00,43.3,42.0,29.94,North,357,4.0,10.0,95,0.00,,,0.00,weatherlink.com 1.10,2013-04-24 05:11:00,
2013-04-24 01:26:00,43.4,42.0,29.93,ENE,77,6.0,10.0,95,0.00,,,0.00,weatherlink.com 1.10,2013-04-24 05:26:00,
2013-04-24 01:41:00,43.3,42.0,29.92,North,10,3.0,18.0,95,0.00,,,0.00,weatherlink.com 1.10,2013-04-24 05:41:00,
2013-04-24 01:57:00,43.3,42.0,29.91,North,350,5.0,13.0,95,0.00,,,0.00,weatherlink.com 1.10,2013-04-24 05:57:00,
2013-04-24 02:12:00,43.2,42.0,29.89,NW,308,1.0,11.0,95,0.00,,,0.00,weatherlink.com 1.10,2013-04-24 06:12:00,
2013-04-24 02:27:00,43.3,42.0,29.89,NNW,345,4.0,13.0,95,0.00,,,0.00,weatherlink.com 1.10,2013-04-24 06:27:00,
2013-04-24 02:42:00,43.3,42.0,29.89,ENE,60,7.0,11.0,95,0.00,,,0.00,weatherlink.com 1.10,2013-04-24 06:42:00,
2013-04-24 02:57:00,43.4,42.0,29.88,North,1,2.0,12.0,95,0.00,,,0.00,weatherlink.com 1.10,2013-04-24 06:57:00,
2013-04-24 03:12:00,43.4,42.0,29.87,NNW,335,13.0,13.0,95,0.00,,,0.00,weatherlink.com 1.10,2013-04-24 07:12:00,
2013-04-24 03:27:00,43.4,42.0,29.86,NNE,14,3.0,14.0,95,0.00,,,0.00,weatherlink.com 1.10,2013-04-24 07:27:00,
2013-04-24 03:42:00,43.3,42.0,29.85,SSW,198,1.0,17.0,95,0.00,,,0.00,weatherlink.com 1.10,2013-04-24 07:42:00,
2013-04-24 03:57:00,43.2,42.0,29.86,North,358,5.0,14.0,95,0.00,,,0.00,weatherlink.com 1.10,2013-04-24 07:57:00,
2013-04-24 04:12:00,43.2,42.0,29.86,NW,306,0.0,12.0,95,0.00,,,0.00,weatherlink.com 1.10,2013-04-24 08:12:00,
2013-04-24 04:27:00,43.3,42.0,29.87,NNW,335,2.0,14.0,95,0.00,,,0.00,weatherlink.com 1.10,2013-04-24 08:27:00,
2013-04-24 04:42:00,43.3,42.0,29.88,NNW,342,2.0,9.0,95,0.00,,,0.00,weatherlink.com 1.10,2013-04-24 08:42:00,
2013-04-24 04:57:00,43.4,42.0,29.88,North,352,5.0,13.0,95,0.00,,,0.00,weatherlink.com 1.10,2013-04-24 08:57:00,
2013-04-24 05:12:00,43.4,42.0,29.88,North,352,2.0,10.0,95,0.00,,,0.00,weatherlink.com 1.10,2013-04-24 09:12:00,
2013-04-24 05:27:00,43.4,42.0,29.88,NNW,343,3.0,11.0,95,0.00,,,0.00,weatherlink.com 1.10,2013-04-24 09:27:00,
2013-04-24 05:42:00,43.5,42.0,29.88,NW,315,6.0,13.0,95,0.00,,,0.00,weatherlink.com 1.10,2013-04-24 09:42:00,
2013-04-24 05:57:00,43.5,42.0,29.88,NNW,348,2.0,10.0,95,0.00,,,0.00,weatherlink.com 1.10,2013-04-24 09:57:00,
2013-04-24 06:12:00,43.7,42.0,29.88,NNW,331,6.0,10.0,95,0.00,,,0.00,weatherlink.com 1.10,2013-04-24 10:12:00,
2013-04-24 06:27:00,43.8,43.0,29.89,NW,319,3.0,9.0,95,0.00,,,0.00,weatherlink.com 1.10,2013-04-24 10:27:00,
2013-04-24 06:42:00,43.8,42.0,29.89,NW,307,4.0,10.0,94,0.00,,,0.00,weatherlink.com 1.10,2013-04-24 10:42:00,
2013-04-24 06:57:00,43.8,42.0,29.90,NW,318,5.0,13.0,94,0.00,,,0.00,weatherlink.com 1.10,2013-04-24 10:57:00,
2013-04-24 07:12:00,43.9,42.0,29.90,NNW,347,7.0,11.0,94,0.00,,,0.00,weatherlink.com 1.10,2013-04-24 11:12:00,
2013-04-24 07:27:00,44.1,43.0,29.90,SSW,212,5.0,16.0,94,0.00,,,0.00,weatherlink.com 1.10,2013-04-24 11:27:00,
2013-04-24 07:42:00,44.4,43.0,29.90,West,279,2.0,9.0,93,0.00,,,0.00,weatherlink.com 1.10,2013-04-24 11:42:00,
2013-04-24 07:57:00,44.7,43.0,29.90,NNW,329,0.0,9.0,93,0.01,,,0.01,weatherlink.com 1.10,2013-04-24 11:57:00,
2013-04-24 08:12:00,45.1,43.0,29.91,NNW,336,6.0,8.0,93,0.01,,,0.01,weatherlink.com 1.10,2013-04-24 12:12:00,
2013-04-24 08:27:00,45.8,44.0,29.92,NW,311,2.0,7.0,92,0.01,,,0.01,weatherlink.com 1.10,2013-04-24 12:27:00,
2013-04-24 08:42:00,46.5,44.0,29.93,NW,323,6.0,10.0,91,0.01,,,0.01,weatherlink.com 1.10,2013-04-24 12:42:00,
2013-04-24 08:57:00,47.0,44.0,29.94,NNW,338,7.0,7.0,90,0.00,,,0.01,weatherlink.com 1.10,2013-04-24 12:57:00,
2013-04-24 09:12:00,47.1,44.0,29.94,WNW,287,0.0,12.0,89,0.00,,,0.01,weatherlink.com 1.10,2013-04-24 13:12:00,
2013-04-24 09:27:00,47.4,44.0,29.93,WNW,300,0.0,8.0,88,0.00,,,0.01,weatherlink.com 1.10,2013-04-24 13:27:00,
2013-04-24 09:42:00,47.8,45.0,29.94,NW,308,4.0,12.0,88,0.00,,,0.01,weatherlink.com 1.10,2013-04-24 13:42:00,
2013-04-24 09:57:00,48.2,45.0,29.93,West,268,0.0,5.0,88,0.00,,,0.01,weatherlink.com 1.10,2013-04-24 13:57:00,
2013-04-24 10:12:00,48.2,45.0,29.93,NW,324,8.0,8.0,87,0.00,,,0.01,weatherlink.com 1.10,2013-04-24 14:12:00,
2013-04-24 10:28:00,48.7,45.0,29.93,SW,222,2.0,11.0,87,0.00,,,0.01,weatherlink.com 1.10,2013-04-24 14:28:00,
2013-04-24 10:42:00,50.1,46.0,29.92,NW,307,1.0,5.0,86,0.00,,,0.01,weatherlink.com 1.10,2013-04-24 14:42:00,
2013-04-24 10:57:00,50.7,46.0,29.92,WNW,290,0.0,8.0,85,0.00,,,0.01,weatherlink.com 1.10,2013-04-24 14:57:00,
2013-04-24 11:13:00,52.2,48.0,29.92,NW,314,2.0,5.0,84,0.00,,,0.01,weatherlink.com 1.10,2013-04-24 15:13:00,
2013-04-24 11:28:00,53.1,47.0,29.92,WSW,245,0.0,7.0,81,0.00,,,0.01,weatherlink.com 1.10,2013-04-24 15:28:00,
2013-04-24 11:43:00,54.1,48.0,29.92,SW,234,1.0,6.0,80,0.00,,,0.01,weatherlink.com 1.10,2013-04-24 15:43:00,
2013-04-24 11:58:00,55.0,49.0,29.92,SSE,160,1.0,6.0,80,0.00,,,0.01,weatherlink.com 1.10,2013-04-24 15:58:00,
2013-04-24 12:13:00,55.8,49.0,29.92,West,278,2.0,7.0,78,0.00,,,0.01,weatherlink.com 1.10,2013-04-24 16:13:00,
2013-04-24 12:28:00,57.4,50.0,29.91,SSW,200,2.0,8.0,76,0.00,,,0.01,weatherlink.com 1.10,2013-04-24 16:28:00,
2013-04-24 12:43:00,59.3,50.0,29.91,West,275,0.0,10.0,70,0.00,,,0.01,weatherlink.com 1.10,2013-04-24 16:43:00,
2013-04-24 12:58:00,60.1,50.0,29.91,SSW,211,4.0,8.0,69,0.00,,,0.01,weatherlink.com 1.10,2013-04-24 16:58:00,
2013-04-24 13:13:00,60.6,50.0,29.89,SW,219,1.0,8.0,67,0.00,,,0.01,weatherlink.com 1.10,2013-04-24 17:13:00,
2013-04-24 13:28:00,62.1,51.0,29.89,SSW,203,0.0,5.0,66,0.00,,,0.01,weatherlink.com 1.10,2013-04-24 17:28:00,
2013-04-24 13:43:00,61.7,49.0,29.89,SW,217,3.0,10.0,63,0.00,,,0.01,weatherlink.com 1.10,2013-04-24 17:43:00,
2013-04-24 13:58:00,59.8,47.0,29.89,SSW,204,9.0,12.0,64,0.00,,,0.01,weatherlink.com 1.10,2013-04-24 17:58:00,
2013-04-24 14:13:00,58.6,48.0,29.88,SSW,203,6.0,15.0,67,0.00,,,0.01,weatherlink.com 1.10,2013-04-24 18:13:00,
2013-04-24 14:28:00,59.4,48.0,29.88,SW,215,2.0,10.0,67,0.00,,,0.01,weatherlink.com 1.10,2013-04-24 18:28:00,
2013-04-24 14:43:00,59.2,48.0,29.89,SW,219,7.0,10.0,66,0.00,,,0.01,weatherlink.com 1.10,2013-04-24 18:43:00,
2013-04-24 14:58:00,58.0,47.0,29.88,West,264,4.0,11.0,68,0.00,,,0.01,weatherlink.com 1.10,2013-04-24 18:58:00,
2013-04-24 15:13:00,58.1,48.0,29.87,SW,217,0.0,10.0,68,0.00,,,0.01,weatherlink.com 1.10,2013-04-24 19:13:00,
2013-04-24 15:28:00,58.3,48.0,29.87,SW,217,5.0,13.0,68,0.00,,,0.01,weatherlink.com 1.10,2013-04-24 19:28:00,
2013-04-24 15:43:00,59.0,48.0,29.86,South,172,3.0,10.0,67,0.00,,,0.01,weatherlink.com 1.10,2013-04-24 19:43:00,
2013-04-24 15:58:00,58.4,47.0,29.87,SW,217,1.0,11.0,67,0.00,,,0.01,weatherlink.com 1.10,2013-04-24 19:58:00,
2013-04-24 16:13:00,58.9,48.0,29.87,WSW,242,3.0,10.0,67,0.00,,,0.01,weatherlink.com 1.10,2013-04-24 20:13:00,
2013-04-24 16:28:00,58.2,47.0,29.87,SSE,167,3.0,13.0,67,0.00,,,0.01,weatherlink.com 1.10,2013-04-24 20:28:00,
2013-04-24 16:43:00,58.1,48.0,29.87,West,264,2.0,12.0,68,0.00,,,0.01,weatherlink.com 1.10,2013-04-24 20:43:00,
2013-04-24 16:58:00,57.1,47.0,29.88,SSW,210,6.0,8.0,70,0.00,,,0.01,weatherlink.com 1.10,2013-04-24 20:58:00,
2013-04-24 17:13:00,56.8,47.0,29.87,WSW,237,1.0,7.0,71,0.00,,,0.01,weatherlink.com 1.10,2013-04-24 21:13:00,
2013-04-24 17:28:00,57.4,47.0,29.87,SW,222,1.0,8.0,69,0.00,,,0.01,weatherlink.com 1.10,2013-04-24 21:28:00,
2013-04-24 17:43:00,56.4,47.0,29.87,SSW,198,2.0,11.0,70,0.00,,,0.01,weatherlink.com 1.10,2013-04-24 21:43:00,
2013-04-24 17:58:00,54.8,46.0,29.87,South,179,8.0,11.0,73,0.00,,,0.01,weatherlink.com 1.10,2013-04-24 21:58:00,
2013-04-24 18:13:00,53.5,46.0,29.88,West,259,1.0,12.0,75,0.00,,,0.01,weatherlink.com 1.10,2013-04-24 22:13:00,
2013-04-24 18:28:00,52.5,45.0,29.89,SW,222,2.0,9.0,77,0.00,,,0.01,weatherlink.com 1.10,2013-04-24 22:28:00,
2013-04-24 18:43:00,51.4,45.0,29.89,West,276,4.0,7.0,79,0.00,,,0.01,weatherlink.com 1.10,2013-04-24 22:43:00,
2013-04-24 18:58:00,50.5,45.0,29.89,West,262,1.0,8.0,81,0.00,,,0.01,weatherlink.com 1.10,2013-04-24 22:58:00,
2013-04-24 19:13:00,49.4,45.0,29.89,West,264,1.0,8.0,84,0.00,,,0.01,weatherlink.com 1.10,2013-04-24 23:13:00,
2013-04-24 19:28:00,48.8,45.0,29.89,West,268,1.0,9.0,86,0.00,,,0.01,weatherlink.com 1.10,2013-04-24 23:28:00,
2013-04-24 19:43:00,48.4,45.0,29.90,SW,215,5.0,11.0,87,0.00,,,0.01,weatherlink.com 1.10,2013-04-24 23:43:00,
2013-04-24 19:58:00,48.2,45.0,29.90,WNW,282,2.0,13.0,88,0.00,,,0.01,weatherlink.com 1.10,2013-04-24 23:58:00,
2013-04-24 20:13:00,48.0,45.0,29.90,SW,216,6.0,12.0,90,0.00,,,0.01,weatherlink.com 1.10,2013-04-25 00:13:00,
2013-04-24 20:28:00,47.8,45.0,29.90,WSW,238,2.0,14.0,91,0.00,,,0.01,weatherlink.com 1.10,2013-04-25 00:28:00,
2013-04-24 20:43:00,47.8,45.0,29.91,SW,223,4.0,13.0,91,0.00,,,0.01,weatherlink.com 1.10,2013-04-25 00:43:00,
2013-04-24 20:58:00,48.0,46.0,29.92,SSW,198,0.0,13.0,92,0.00,,,0.01,weatherlink.com 1.10,2013-04-25 00:58:00,
2013-04-24 21:13:00,48.1,46.0,29.92,SSW,195,4.0,10.0,93,0.00,,,0.01,weatherlink.com 1.10,2013-04-25 01:13:00,
2013-04-24 21:28:00,48.0,46.0,29.93,SSW,196,3.0,15.0,94,0.00,,,0.01,weatherlink.com 1.10,2013-04-25 01:28:00,
2013-04-24 21:43:00,48.0,47.0,29.93,WSW,255,1.0,13.0,95,0.00,,,0.01,weatherlink.com 1.10,2013-04-25 01:43:00,
2013-04-24 21:58:00,48.1,47.0,29.95,SSW,212,4.0,8.0,95,0.00,,,0.01,weatherlink.com 1.10,2013-04-25 01:58:00,
2013-04-24 22:13:00,48.5,48.0,29.94,WSW,252,2.0,8.0,96,0.00,,,0.01,weatherlink.com 1.10,2013-04-25 02:13:00,
2013-04-24 22:28:00,48.7,48.0,29.94,West,280,7.0,13.0,96,0.00,,,0.01,weatherlink.com 1.10,2013-04-25 02:28:00,
2013-04-24 22:43:00,48.8,48.0,29.94,SSW,211,10.0,12.0,96,0.00,,,0.01,weatherlink.com 1.10,2013-04-25 02:43:00,
2013-04-24 22:58:00,49.0,48.0,29.93,WSW,252,0.0,11.0,96,0.00,,,0.01,weatherlink.com 1.10,2013-04-25 02:58:00,
2013-04-24 23:13:00,49.1,48.0,29.93,SSE,165,2.0,10.0,96,0.00,,,0.01,weatherlink.com 1.10,2013-04-25 03:13:00,
2013-04-24 23:28:00,49.0,48.0,29.92,SSW,196,0.0,9.0,96,0.00,,,0.01,weatherlink.com 1.10,2013-04-25 03:28:00,
2013-04-24 23:43:00,49.1,48.0,29.92,SSW,201,0.0,11.0,96,0.00,,,0.01,weatherlink.com 1.10,2013-04-25 03:43:00,
2013-04-24 23:58:00,49.3,48.0,29.92,WSW,250,6.0,11.0,96,0.00,,,0.01,weatherlink.com 1.10,2013-04-25 03:58:00,